sensor_id;sensor_type;location;lat;lon;timestamp;P1;durP1;ratioP1;P2;durP2;ratioP2
38725;SDS011;24474;48.906;8.808;2022-09-03T00:00:47;3.10;;;1.55;;
38725;SDS011;24474;48.906;8.808;2022-09-03T00:03:26;4.18;;;1.20;;
38725;SDS011;24474;48.906;8.808;2022-09-03T00:09:48;2.92;;;1.48;;
38725;SDS011;24474;48.906;8.808;2022-09-03T00:12:02;2.92;;;1.40;;
38725;SDS011;24474;48.906;8.808;2022-09-03T00:14:49;2.78;;;1.30;;
38725;SDS011;24474;48.906;8.808;2022-09-03T00:17:23;2.80;;;1.38;;
38725;SDS011;24474;48.906;8.808;2022-09-03T00:22:50;3.28;;;1.40;;
38725;SDS011;24474;48.906;8.808;2022-09-03T00:25:22;1.45;;;1.10;;
38725;SDS011;24474;48.906;8.808;2022-09-03T00:27:57;2.50;;;1.48;;
38725;SDS011;24474;48.906;8.808;2022-09-03T00:30:27;2.55;;;1.13;;
38725;SDS011;24474;48.906;8.808;2022-09-03T00:32:59;3.08;;;1.60;;
38725;SDS011;24474;48.906;8.808;2022-09-03T00:35:36;4.55;;;1.50;;
38725;SDS011;24474;48.906;8.808;2022-09-03T00:38:09;1.55;;;1.10;;
38725;SDS011;24474;48.906;8.808;2022-09-03T00:44:00;2.22;;;1.38;;
38725;SDS011;24474;48.906;8.808;2022-09-03T00:46:41;3.80;;;1.48;;
38725;SDS011;24474;48.906;8.808;2022-09-03T01:00:28;3.67;;;1.30;;
38725;SDS011;24474;48.906;8.808;2022-09-03T01:05:59;3.67;;;1.48;;
38725;SDS011;24474;48.906;8.808;2022-09-03T01:20:46;2.25;;;1.30;;
38725;SDS011;24474;48.906;8.808;2022-09-03T01:29:02;2.45;;;1.35;;
38725;SDS011;24474;48.906;8.808;2022-09-03T01:43:09;3.28;;;1.60;;
38725;SDS011;24474;48.906;8.808;2022-09-03T01:45:54;5.47;;;1.65;;
38725;SDS011;24474;48.906;8.808;2022-09-03T01:51:30;2.40;;;1.40;;
38725;SDS011;24474;48.906;8.808;2022-09-03T01:59:32;3.63;;;1.60;;
38725;SDS011;24474;48.906;8.808;2022-09-03T02:02:05;1.67;;;1.33;;
38725;SDS011;24474;48.906;8.808;2022-09-03T02:04:37;2.45;;;1.52;;
38725;SDS011;24474;48.906;8.808;2022-09-03T02:07:03;3.47;;;1.50;;
38725;SDS011;24474;48.906;8.808;2022-09-03T02:09:29;3.78;;;1.45;;
38725;SDS011;24474;48.906;8.808;2022-09-03T02:12:16;5.00;;;1.52;;
38725;SDS011;24474;48.906;8.808;2022-09-03T02:14:45;3.42;;;1.50;;
38725;SDS011;24474;48.906;8.808;2022-09-03T02:17:11;3.90;;;1.30;;
38725;SDS011;24474;48.906;8.808;2022-09-03T02:19:38;4.05;;;1.50;;
38725;SDS011;24474;48.906;8.808;2022-09-03T02:22:05;4.60;;;1.50;;
38725;SDS011;24474;48.906;8.808;2022-09-03T02:24:32;4.07;;;1.48;;
38725;SDS011;24474;48.906;8.808;2022-09-03T02:26:59;3.15;;;1.55;;
38725;SDS011;24474;48.906;8.808;2022-09-03T02:29:25;2.42;;;1.30;;
38725;SDS011;24474;48.906;8.808;2022-09-03T02:31:50;2.72;;;1.33;;
38725;SDS011;24474;48.906;8.808;2022-09-03T02:34:16;3.22;;;1.60;;
38725;SDS011;24474;48.906;8.808;2022-09-03T02:36:43;4.43;;;1.60;;
38725;SDS011;24474;48.906;8.808;2022-09-03T02:39:12;3.28;;;1.40;;
38725;SDS011;24474;48.906;8.808;2022-09-03T02:41:39;2.35;;;1.42;;
38725;SDS011;24474;48.906;8.808;2022-09-03T02:44:40;3.38;;;1.50;;
38725;SDS011;24474;48.906;8.808;2022-09-03T02:47:03;4.35;;;1.60;;
38725;SDS011;24474;48.906;8.808;2022-09-03T02:49:33;2.40;;;1.70;;
38725;SDS011;24474;48.906;8.808;2022-09-03T02:52:00;4.25;;;1.73;;
38725;SDS011;24474;48.906;8.808;2022-09-03T02:54:33;4.10;;;1.70;;
38725;SDS011;24474;48.906;8.808;2022-09-03T02:57:03;2.90;;;1.60;;
38725;SDS011;24474;48.906;8.808;2022-09-03T02:59:30;4.68;;;1.60;;
38725;SDS011;24474;48.906;8.808;2022-09-03T03:01:55;2.72;;;1.50;;
38725;SDS011;24474;48.906;8.808;2022-09-03T03:04:22;4.05;;;1.55;;
38725;SDS011;24474;48.906;8.808;2022-09-03T03:06:48;3.10;;;1.70;;
38725;SDS011;24474;48.906;8.808;2022-09-03T03:09:16;3.05;;;1.70;;
38725;SDS011;24474;48.906;8.808;2022-09-03T03:11:43;4.45;;;1.73;;
38725;SDS011;24474;48.906;8.808;2022-09-03T03:14:09;2.92;;;1.58;;
38725;SDS011;24474;48.906;8.808;2022-09-03T03:16:35;2.92;;;1.70;;
38725;SDS011;24474;48.906;8.808;2022-09-03T03:19:02;3.53;;;1.77;;
38725;SDS011;24474;48.906;8.808;2022-09-03T03:21:28;4.70;;;1.80;;
38725;SDS011;24474;48.906;8.808;2022-09-03T03:23:56;2.60;;;1.60;;
38725;SDS011;24474;48.906;8.808;2022-09-03T03:26:22;3.45;;;1.55;;
38725;SDS011;24474;48.906;8.808;2022-09-03T03:28:49;3.95;;;1.55;;
38725;SDS011;24474;48.906;8.808;2022-09-03T03:31:22;2.60;;;1.50;;
38725;SDS011;24474;48.906;8.808;2022-09-03T03:36:21;3.90;;;1.65;;
38725;SDS011;24474;48.906;8.808;2022-09-03T03:38:48;3.75;;;1.80;;
38725;SDS011;24474;48.906;8.808;2022-09-03T03:41:15;2.17;;;1.80;;
38725;SDS011;24474;48.906;8.808;2022-09-03T03:43:51;6.00;;;1.95;;
38725;SDS011;24474;48.906;8.808;2022-09-03T03:46:24;4.47;;;2.28;;
38725;SDS011;24474;48.906;8.808;2022-09-03T03:48:54;3.92;;;2.05;;
38725;SDS011;24474;48.906;8.808;2022-09-03T03:51:19;4.47;;;1.90;;
38725;SDS011;24474;48.906;8.808;2022-09-03T03:53:46;3.67;;;1.90;;
38725;SDS011;24474;48.906;8.808;2022-09-03T03:56:13;4.82;;;1.90;;
38725;SDS011;24474;48.906;8.808;2022-09-03T03:58:41;4.53;;;2.33;;
38725;SDS011;24474;48.906;8.808;2022-09-03T04:03:41;4.18;;;2.10;;
38725;SDS011;24474;48.906;8.808;2022-09-03T04:06:08;3.17;;;1.75;;
38725;SDS011;24474;48.906;8.808;2022-09-03T04:08:35;3.15;;;1.73;;
38725;SDS011;24474;48.906;8.808;2022-09-03T04:11:03;3.33;;;2.10;;
38725;SDS011;24474;48.906;8.808;2022-09-03T04:13:32;3.67;;;2.00;;
38725;SDS011;24474;48.906;8.808;2022-09-03T04:16:02;3.97;;;1.90;;
38725;SDS011;24474;48.906;8.808;2022-09-03T04:18:30;3.70;;;1.90;;
38725;SDS011;24474;48.906;8.808;2022-09-03T04:21:03;3.20;;;2.13;;
38725;SDS011;24474;48.906;8.808;2022-09-03T04:23:31;3.38;;;2.13;;
38725;SDS011;24474;48.906;8.808;2022-09-03T04:25:57;4.82;;;2.40;;
38725;SDS011;24474;48.906;8.808;2022-09-03T04:28:24;3.60;;;2.10;;
38725;SDS011;24474;48.906;8.808;2022-09-03T04:30:51;2.53;;;1.98;;
38725;SDS011;24474;48.906;8.808;2022-09-03T04:33:17;3.28;;;2.15;;
38725;SDS011;24474;48.906;8.808;2022-09-03T04:35:43;4.07;;;2.05;;
38725;SDS011;24474;48.906;8.808;2022-09-03T04:38:10;4.38;;;1.92;;
38725;SDS011;24474;48.906;8.808;2022-09-03T04:40:35;2.85;;;1.85;;
38725;SDS011;24474;48.906;8.808;2022-09-03T04:43:01;2.97;;;1.80;;
38725;SDS011;24474;48.906;8.808;2022-09-03T04:45:27;4.57;;;1.90;;
38725;SDS011;24474;48.906;8.808;2022-09-03T04:50:31;3.75;;;2.10;;
38725;SDS011;24474;48.906;8.808;2022-09-03T04:53:00;3.60;;;2.20;;
38725;SDS011;24474;48.906;8.808;2022-09-03T04:55:31;3.53;;;2.10;;
38725;SDS011;24474;48.906;8.808;2022-09-03T04:58:03;4.55;;;1.80;;
38725;SDS011;24474;48.906;8.808;2022-09-03T05:00:29;3.05;;;1.80;;
38725;SDS011;24474;48.906;8.808;2022-09-03T05:03:18;4.30;;;2.30;;
38725;SDS011;24474;48.906;8.808;2022-09-03T05:06:09;3.20;;;2.03;;
38725;SDS011;24474;48.906;8.808;2022-09-03T05:08:35;4.53;;;2.00;;
38725;SDS011;24474;48.906;8.808;2022-09-03T05:11:04;2.92;;;1.90;;
38725;SDS011;24474;48.906;8.808;2022-09-03T05:13:31;4.50;;;2.15;;
38725;SDS011;24474;48.906;8.808;2022-09-03T05:15:59;3.50;;;1.95;;
38725;SDS011;24474;48.906;8.808;2022-09-03T05:18:25;3.03;;;2.15;;
38725;SDS011;24474;48.906;8.808;2022-09-03T05:20:58;3.28;;;2.28;;
38725;SDS011;24474;48.906;8.808;2022-09-03T05:23:28;3.90;;;2.00;;
38725;SDS011;24474;48.906;8.808;2022-09-03T05:25:58;4.53;;;2.03;;
38725;SDS011;24474;48.906;8.808;2022-09-03T05:28:25;5.57;;;2.30;;
38725;SDS011;24474;48.906;8.808;2022-09-03T05:31:05;3.83;;;2.35;;
38725;SDS011;24474;48.906;8.808;2022-09-03T05:33:33;3.42;;;2.10;;
38725;SDS011;24474;48.906;8.808;2022-09-03T05:36:00;6.30;;;2.38;;
38725;SDS011;24474;48.906;8.808;2022-09-03T05:38:27;4.63;;;1.80;;
38725;SDS011;24474;48.906;8.808;2022-09-03T05:40:53;3.42;;;1.55;;
38725;SDS011;24474;48.906;8.808;2022-09-03T05:43:21;2.58;;;1.92;;
38725;SDS011;24474;48.906;8.808;2022-09-03T05:45:47;3.00;;;1.95;;
38725;SDS011;24474;48.906;8.808;2022-09-03T05:48:13;5.43;;;1.90;;
38725;SDS011;24474;48.906;8.808;2022-09-03T05:50:39;3.83;;;1.77;;
38725;SDS011;24474;48.906;8.808;2022-09-03T05:53:05;3.78;;;2.00;;
38725;SDS011;24474;48.906;8.808;2022-09-03T05:55:30;4.70;;;2.20;;
38725;SDS011;24474;48.906;8.808;2022-09-03T05:57:56;6.88;;;2.05;;
38725;SDS011;24474;48.906;8.808;2022-09-03T06:00:23;5.22;;;2.33;;
38725;SDS011;24474;48.906;8.808;2022-09-03T06:02:52;4.50;;;2.33;;
38725;SDS011;24474;48.906;8.808;2022-09-03T06:05:18;3.70;;;2.00;;
38725;SDS011;24474;48.906;8.808;2022-09-03T06:07:44;5.97;;;1.88;;
38725;SDS011;24474;48.906;8.808;2022-09-03T06:10:12;4.25;;;2.30;;
38725;SDS011;24474;48.906;8.808;2022-09-03T06:12:40;7.85;;;2.03;;
38725;SDS011;24474;48.906;8.808;2022-09-03T06:15:07;5.72;;;2.22;;
38725;SDS011;24474;48.906;8.808;2022-09-03T06:17:33;4.15;;;2.10;;
38725;SDS011;24474;48.906;8.808;2022-09-03T06:19:59;3.85;;;2.00;;
38725;SDS011;24474;48.906;8.808;2022-09-03T06:22:24;3.83;;;1.90;;
38725;SDS011;24474;48.906;8.808;2022-09-03T06:24:52;2.22;;;1.73;;
38725;SDS011;24474;48.906;8.808;2022-09-03T06:27:18;6.57;;;2.17;;
38725;SDS011;24474;48.906;8.808;2022-09-03T06:29:45;3.67;;;1.60;;
38725;SDS011;24474;48.906;8.808;2022-09-03T06:32:11;5.72;;;2.00;;
38725;SDS011;24474;48.906;8.808;2022-09-03T06:34:36;5.90;;;2.30;;
38725;SDS011;24474;48.906;8.808;2022-09-03T06:37:03;3.30;;;1.98;;
38725;SDS011;24474;48.906;8.808;2022-09-03T06:39:30;4.07;;;2.03;;
38725;SDS011;24474;48.906;8.808;2022-09-03T06:41:56;4.32;;;2.22;;
38725;SDS011;24474;48.906;8.808;2022-09-03T06:44:21;4.75;;;2.40;;
38725;SDS011;24474;48.906;8.808;2022-09-03T06:46:47;7.70;;;2.42;;
38725;SDS011;24474;48.906;8.808;2022-09-03T06:49:16;5.43;;;2.50;;
38725;SDS011;24474;48.906;8.808;2022-09-03T06:51:43;8.88;;;2.50;;
38725;SDS011;24474;48.906;8.808;2022-09-03T06:54:09;3.33;;;2.17;;
38725;SDS011;24474;48.906;8.808;2022-09-03T06:56:38;4.55;;;2.75;;
38725;SDS011;24474;48.906;8.808;2022-09-03T06:59:07;3.95;;;2.60;;
38725;SDS011;24474;48.906;8.808;2022-09-03T07:01:38;4.10;;;2.65;;
38725;SDS011;24474;48.906;8.808;2022-09-03T07:04:06;4.75;;;3.22;;
38725;SDS011;24474;48.906;8.808;2022-09-03T07:06:34;6.45;;;3.33;;
38725;SDS011;24474;48.906;8.808;2022-09-03T07:09:04;5.05;;;3.00;;
38725;SDS011;24474;48.906;8.808;2022-09-03T07:11:32;4.72;;;2.88;;
38725;SDS011;24474;48.906;8.808;2022-09-03T07:14:02;5.63;;;2.72;;
38725;SDS011;24474;48.906;8.808;2022-09-03T07:16:35;3.05;;;2.40;;
38725;SDS011;24474;48.906;8.808;2022-09-03T07:19:03;3.70;;;2.53;;
38725;SDS011;24474;48.906;8.808;2022-09-03T07:21:31;4.25;;;2.67;;
38725;SDS011;24474;48.906;8.808;2022-09-03T07:24:01;3.90;;;2.70;;
38725;SDS011;24474;48.906;8.808;2022-09-03T07:26:30;5.68;;;2.80;;
38725;SDS011;24474;48.906;8.808;2022-09-03T07:28:57;5.93;;;3.05;;
38725;SDS011;24474;48.906;8.808;2022-09-03T07:31:28;4.28;;;2.55;;
38725;SDS011;24474;48.906;8.808;2022-09-03T07:33:59;3.53;;;2.45;;
38725;SDS011;24474;48.906;8.808;2022-09-03T07:36:34;5.20;;;2.85;;
38725;SDS011;24474;48.906;8.808;2022-09-03T07:39:08;3.42;;;2.65;;
38725;SDS011;24474;48.906;8.808;2022-09-03T07:41:39;4.10;;;2.47;;
38725;SDS011;24474;48.906;8.808;2022-09-03T07:44:10;3.70;;;2.88;;
38725;SDS011;24474;48.906;8.808;2022-09-03T07:46:37;4.55;;;2.75;;
38725;SDS011;24474;48.906;8.808;2022-09-03T07:49:04;5.32;;;2.70;;
38725;SDS011;24474;48.906;8.808;2022-09-03T07:51:31;4.82;;;2.90;;
38725;SDS011;24474;48.906;8.808;2022-09-03T07:54:00;4.57;;;2.22;;
38725;SDS011;24474;48.906;8.808;2022-09-03T07:56:26;3.83;;;2.67;;
38725;SDS011;24474;48.906;8.808;2022-09-03T07:58:56;3.60;;;2.75;;
38725;SDS011;24474;48.906;8.808;2022-09-03T08:01:24;3.45;;;2.50;;
38725;SDS011;24474;48.906;8.808;2022-09-03T08:03:54;4.07;;;2.42;;
38725;SDS011;24474;48.906;8.808;2022-09-03T08:06:20;3.78;;;2.65;;
38725;SDS011;24474;48.906;8.808;2022-09-03T08:08:59;3.00;;;2.38;;
38725;SDS011;24474;48.906;8.808;2022-09-03T08:11:26;4.63;;;2.63;;
38725;SDS011;24474;48.906;8.808;2022-09-03T08:14:00;5.10;;;2.67;;
38725;SDS011;24474;48.906;8.808;2022-09-03T08:16:34;3.35;;;2.60;;
38725;SDS011;24474;48.906;8.808;2022-09-03T08:19:06;4.20;;;2.50;;
38725;SDS011;24474;48.906;8.808;2022-09-03T08:21:32;7.10;;;2.80;;
38725;SDS011;24474;48.906;8.808;2022-09-03T08:23:58;5.68;;;2.90;;
38725;SDS011;24474;48.906;8.808;2022-09-03T08:26:29;4.32;;;2.72;;
38725;SDS011;24474;48.906;8.808;2022-09-03T08:29:25;4.45;;;2.90;;
38725;SDS011;24474;48.906;8.808;2022-09-03T08:32:23;5.53;;;2.78;;
38725;SDS011;24474;48.906;8.808;2022-09-03T08:34:48;5.15;;;2.78;;
38725;SDS011;24474;48.906;8.808;2022-09-03T08:37:16;3.20;;;2.40;;
38725;SDS011;24474;48.906;8.808;2022-09-03T08:39:42;4.10;;;3.05;;
38725;SDS011;24474;48.906;8.808;2022-09-03T08:42:51;6.43;;;3.60;;
38725;SDS011;24474;48.906;8.808;2022-09-03T08:45:06;4.88;;;3.25;;
38725;SDS011;24474;48.906;8.808;2022-09-03T08:47:38;5.50;;;3.30;;
38725;SDS011;24474;48.906;8.808;2022-09-03T08:50:25;5.70;;;3.23;;
38725;SDS011;24474;48.906;8.808;2022-09-03T08:52:57;6.85;;;3.00;;
38725;SDS011;24474;48.906;8.808;2022-09-03T08:58:09;3.97;;;2.90;;
38725;SDS011;24474;48.906;8.808;2022-09-03T09:00:45;6.18;;;3.22;;
38725;SDS011;24474;48.906;8.808;2022-09-03T09:06:17;5.53;;;4.30;;
38725;SDS011;24474;48.906;8.808;2022-09-03T09:09:02;5.70;;;3.88;;
38725;SDS011;24474;48.906;8.808;2022-09-03T09:17:22;5.03;;;3.70;;
38725;SDS011;24474;48.906;8.808;2022-09-03T09:23:28;5.60;;;3.10;;
38725;SDS011;24474;48.906;8.808;2022-09-03T09:26:00;6.30;;;3.30;;
38725;SDS011;24474;48.906;8.808;2022-09-03T09:28:35;5.03;;;3.25;;
38725;SDS011;24474;48.906;8.808;2022-09-03T09:31:03;4.97;;;3.40;;
38725;SDS011;24474;48.906;8.808;2022-09-03T09:33:31;3.35;;;2.95;;
38725;SDS011;24474;48.906;8.808;2022-09-03T09:35:59;4.80;;;2.72;;
38725;SDS011;24474;48.906;8.808;2022-09-03T09:38:34;12.02;;;2.58;;
38725;SDS011;24474;48.906;8.808;2022-09-03T09:41:22;4.72;;;3.00;;
38725;SDS011;24474;48.906;8.808;2022-09-03T09:43:58;4.80;;;2.65;;
38725;SDS011;24474;48.906;8.808;2022-09-03T09:46:28;7.43;;;3.03;;
38725;SDS011;24474;48.906;8.808;2022-09-03T09:52:26;4.00;;;3.28;;
38725;SDS011;24474;48.906;8.808;2022-09-03T09:55:10;5.80;;;2.97;;
38725;SDS011;24474;48.906;8.808;2022-09-03T09:57:41;4.80;;;3.33;;
38725;SDS011;24474;48.906;8.808;2022-09-03T10:00:09;3.83;;;3.15;;
38725;SDS011;24474;48.906;8.808;2022-09-03T10:02:38;5.00;;;3.17;;
38725;SDS011;24474;48.906;8.808;2022-09-03T10:05:13;2.75;;;2.45;;
38725;SDS011;24474;48.906;8.808;2022-09-03T10:07:53;4.25;;;2.78;;
38725;SDS011;24474;48.906;8.808;2022-09-03T10:10:23;4.70;;;2.50;;
38725;SDS011;24474;48.906;8.808;2022-09-03T10:15:38;3.85;;;2.40;;
38725;SDS011;24474;48.906;8.808;2022-09-03T10:18:18;7.20;;;3.25;;
38725;SDS011;24474;48.906;8.808;2022-09-03T10:26:20;6.35;;;2.60;;
38725;SDS011;24474;48.906;8.808;2022-09-03T10:28:55;3.88;;;2.25;;
38725;SDS011;24474;48.906;8.808;2022-09-03T10:36:39;3.40;;;2.17;;
38725;SDS011;24474;48.906;8.808;2022-09-03T10:39:23;3.30;;;2.22;;
38725;SDS011;24474;48.906;8.808;2022-09-03T10:42:03;3.72;;;2.42;;
38725;SDS011;24474;48.906;8.808;2022-09-03T10:44:42;2.95;;;2.10;;
38725;SDS011;24474;48.906;8.808;2022-09-03T10:47:46;2.75;;;2.13;;
38725;SDS011;24474;48.906;8.808;2022-09-03T10:52:58;5.03;;;2.50;;
38725;SDS011;24474;48.906;8.808;2022-09-03T10:55:54;3.38;;;2.20;;
38725;SDS011;24474;48.906;8.808;2022-09-03T11:01:15;2.20;;;1.95;;
38725;SDS011;24474;48.906;8.808;2022-09-03T11:04:07;2.05;;;1.70;;
38725;SDS011;24474;48.906;8.808;2022-09-03T11:06:53;2.80;;;1.77;;
38725;SDS011;24474;48.906;8.808;2022-09-03T11:09:43;2.00;;;1.75;;
38725;SDS011;24474;48.906;8.808;2022-09-03T11:12:44;3.42;;;1.90;;
38725;SDS011;24474;48.906;8.808;2022-09-03T11:15:33;2.95;;;2.10;;
38725;SDS011;24474;48.906;8.808;2022-09-03T11:18:20;4.22;;;1.85;;
38725;SDS011;24474;48.906;8.808;2022-09-03T11:20:59;3.05;;;2.00;;
38725;SDS011;24474;48.906;8.808;2022-09-03T11:23:30;2.35;;;1.70;;
38725;SDS011;24474;48.906;8.808;2022-09-03T11:31:21;3.10;;;1.80;;
38725;SDS011;24474;48.906;8.808;2022-09-03T11:36:38;3.75;;;1.90;;
38725;SDS011;24474;48.906;8.808;2022-09-03T11:42:10;2.20;;;1.70;;
38725;SDS011;24474;48.906;8.808;2022-09-03T11:44:41;4.20;;;1.77;;
38725;SDS011;24474;48.906;8.808;2022-09-03T11:50:19;3.13;;;2.08;;
38725;SDS011;24474;48.906;8.808;2022-09-03T11:52:47;3.95;;;1.77;;
38725;SDS011;24474;48.906;8.808;2022-09-03T11:55:30;3.42;;;2.13;;
38725;SDS011;24474;48.906;8.808;2022-09-03T11:58:34;2.20;;;1.85;;
38725;SDS011;24474;48.906;8.808;2022-09-03T12:01:02;2.22;;;1.92;;
38725;SDS011;24474;48.906;8.808;2022-09-03T12:03:42;4.50;;;1.88;;
38725;SDS011;24474;48.906;8.808;2022-09-03T12:06:31;3.97;;;2.10;;
38725;SDS011;24474;48.906;8.808;2022-09-03T12:15:08;3.08;;;2.20;;
38725;SDS011;24474;48.906;8.808;2022-09-03T12:20:42;3.03;;;2.17;;
38725;SDS011;24474;48.906;8.808;2022-09-03T12:23:12;2.50;;;2.20;;
38725;SDS011;24474;48.906;8.808;2022-09-03T12:25:49;3.00;;;2.00;;
38725;SDS011;24474;48.906;8.808;2022-09-03T12:28:18;2.95;;;2.05;;
38725;SDS011;24474;48.906;8.808;2022-09-03T12:30:48;4.45;;;1.73;;
38725;SDS011;24474;48.906;8.808;2022-09-03T12:33:18;2.45;;;1.80;;
38725;SDS011;24474;48.906;8.808;2022-09-03T12:35:55;2.10;;;1.75;;
38725;SDS011;24474;48.906;8.808;2022-09-03T12:38:23;2.25;;;1.83;;
38725;SDS011;24474;48.906;8.808;2022-09-03T12:40:50;4.53;;;1.73;;
38725;SDS011;24474;48.906;8.808;2022-09-03T12:43:16;2.47;;;1.60;;
38725;SDS011;24474;48.906;8.808;2022-09-03T12:45:44;1.73;;;1.40;;
38725;SDS011;24474;48.906;8.808;2022-09-03T12:48:12;1.40;;;1.30;;
38725;SDS011;24474;48.906;8.808;2022-09-03T12:50:41;3.13;;;1.45;;
38725;SDS011;24474;48.906;8.808;2022-09-03T12:53:08;2.03;;;1.55;;
38725;SDS011;24474;48.906;8.808;2022-09-03T13:00:47;2.30;;;1.63;;
38725;SDS011;24474;48.906;8.808;2022-09-03T13:06:34;3.50;;;1.30;;
38725;SDS011;24474;48.906;8.808;2022-09-03T13:09:25;1.60;;;1.30;;
38725;SDS011;24474;48.906;8.808;2022-09-03T13:11:54;2.30;;;1.30;;
38725;SDS011;24474;48.906;8.808;2022-09-03T13:14:20;2.28;;;1.17;;
38725;SDS011;24474;48.906;8.808;2022-09-03T13:16:50;2.95;;;1.10;;
38725;SDS011;24474;48.906;8.808;2022-09-03T13:25:25;3.10;;;1.60;;
38725;SDS011;24474;48.906;8.808;2022-09-03T13:33:49;1.85;;;1.10;;
38725;SDS011;24474;48.906;8.808;2022-09-03T13:36:24;1.63;;;1.10;;
38725;SDS011;24474;48.906;8.808;2022-09-03T13:44:08;2.72;;;1.10;;
38725;SDS011;24474;48.906;8.808;2022-09-03T13:46:54;3.95;;;1.25;;
38725;SDS011;24474;48.906;8.808;2022-09-03T13:52:50;3.83;;;1.20;;
38725;SDS011;24474;48.906;8.808;2022-09-03T13:55:47;1.98;;;1.10;;
38725;SDS011;24474;48.906;8.808;2022-09-03T13:58:30;4.60;;;1.63;;
38725;SDS011;24474;48.906;8.808;2022-09-03T14:01:25;2.92;;;1.40;;
38725;SDS011;24474;48.906;8.808;2022-09-03T14:04:03;2.58;;;1.50;;
38725;SDS011;24474;48.906;8.808;2022-09-03T14:06:43;2.22;;;1.40;;
38725;SDS011;24474;48.906;8.808;2022-09-03T14:12:03;38.95;;;6.68;;
38725;SDS011;24474;48.906;8.808;2022-09-03T14:22:52;3.70;;;1.88;;
38725;SDS011;24474;48.906;8.808;2022-09-03T14:25:27;5.60;;;2.20;;
38725;SDS011;24474;48.906;8.808;2022-09-03T14:27:54;4.10;;;1.60;;
38725;SDS011;24474;48.906;8.808;2022-09-03T14:30:48;3.33;;;1.77;;
38725;SDS011;24474;48.906;8.808;2022-09-03T14:44:54;5.00;;;2.97;;
38725;SDS011;24474;48.906;8.808;2022-09-03T14:47:32;2.92;;;2.20;;
38725;SDS011;24474;48.906;8.808;2022-09-03T14:55:42;3.13;;;1.75;;
38725;SDS011;24474;48.906;8.808;2022-09-03T14:58:16;5.45;;;2.00;;
38725;SDS011;24474;48.906;8.808;2022-09-03T15:01:23;2.85;;;1.73;;
38725;SDS011;24474;48.906;8.808;2022-09-03T15:12:38;1.83;;;1.30;;
38725;SDS011;24474;48.906;8.808;2022-09-03T15:16:10;4.30;;;1.65;;
38725;SDS011;24474;48.906;8.808;2022-09-03T15:20:52;3.42;;;1.60;;
38725;SDS011;24474;48.906;8.808;2022-09-03T15:31:32;6.45;;;2.30;;
38725;SDS011;24474;48.906;8.808;2022-09-03T15:34:36;4.00;;;1.92;;
38725;SDS011;24474;48.906;8.808;2022-09-03T15:37:27;4.20;;;2.10;;
38725;SDS011;24474;48.906;8.808;2022-09-03T15:40:04;4.97;;;2.42;;
38725;SDS011;24474;48.906;8.808;2022-09-03T15:43:20;3.63;;;2.22;;
38725;SDS011;24474;48.906;8.808;2022-09-03T15:45:56;3.75;;;2.10;;
38725;SDS011;24474;48.906;8.808;2022-09-03T15:48:55;3.95;;;2.00;;
38725;SDS011;24474;48.906;8.808;2022-09-03T15:51:41;4.78;;;2.50;;
38725;SDS011;24474;48.906;8.808;2022-09-03T15:57:45;5.60;;;2.90;;
38725;SDS011;24474;48.906;8.808;2022-09-03T16:00:11;5.10;;;3.05;;
38725;SDS011;24474;48.906;8.808;2022-09-03T16:02:42;5.40;;;3.00;;
38725;SDS011;24474;48.906;8.808;2022-09-03T16:08:31;4.60;;;2.53;;
38725;SDS011;24474;48.906;8.808;2022-09-03T16:11:18;5.88;;;2.80;;
38725;SDS011;24474;48.906;8.808;2022-09-03T16:25:20;3.05;;;2.20;;
38725;SDS011;24474;48.906;8.808;2022-09-03T16:28:06;4.05;;;2.63;;
38725;SDS011;24474;48.906;8.808;2022-09-03T16:38:44;6.55;;;2.40;;
38725;SDS011;24474;48.906;8.808;2022-09-03T16:41:33;4.93;;;2.70;;
38725;SDS011;24474;48.906;8.808;2022-09-03T16:44:14;3.35;;;2.13;;
38725;SDS011;24474;48.906;8.808;2022-09-03T16:58:53;3.08;;;2.28;;
38725;SDS011;24474;48.906;8.808;2022-09-03T17:07:07;2.92;;;2.47;;
38725;SDS011;24474;48.906;8.808;2022-09-03T17:10:14;5.35;;;2.70;;
38725;SDS011;24474;48.906;8.808;2022-09-03T17:15:29;4.32;;;2.40;;
38725;SDS011;24474;48.906;8.808;2022-09-03T17:31:53;5.50;;;2.90;;
38725;SDS011;24474;48.906;8.808;2022-09-03T17:37:30;6.13;;;3.28;;
38725;SDS011;24474;48.906;8.808;2022-09-03T17:40:18;4.45;;;3.35;;
38725;SDS011;24474;48.906;8.808;2022-09-03T17:42:59;4.40;;;3.22;;
38725;SDS011;24474;48.906;8.808;2022-09-03T17:45:55;4.03;;;3.20;;
38725;SDS011;24474;48.906;8.808;2022-09-03T17:48:38;4.60;;;3.40;;
38725;SDS011;24474;48.906;8.808;2022-09-03T17:53:50;6.25;;;4.07;;
38725;SDS011;24474;48.906;8.808;2022-09-03T17:56:29;4.53;;;3.63;;
38725;SDS011;24474;48.906;8.808;2022-09-03T18:01:26;3.83;;;3.08;;
38725;SDS011;24474;48.906;8.808;2022-09-03T18:03:56;5.55;;;3.60;;
38725;SDS011;24474;48.906;8.808;2022-09-03T18:07:09;4.78;;;4.00;;
38725;SDS011;24474;48.906;8.808;2022-09-03T18:09:39;9.52;;;4.30;;
38725;SDS011;24474;48.906;8.808;2022-09-03T18:12:33;7.30;;;4.30;;
38725;SDS011;24474;48.906;8.808;2022-09-03T18:15:31;6.35;;;4.13;;
38725;SDS011;24474;48.906;8.808;2022-09-03T18:18:11;5.78;;;4.63;;
38725;SDS011;24474;48.906;8.808;2022-09-03T18:20:50;5.85;;;4.40;;
38725;SDS011;24474;48.906;8.808;2022-09-03T18:23:45;4.88;;;4.20;;
38725;SDS011;24474;48.906;8.808;2022-09-03T18:29:35;6.65;;;4.07;;
38725;SDS011;24474;48.906;8.808;2022-09-03T18:32:37;4.33;;;3.50;;
38725;SDS011;24474;48.906;8.808;2022-09-03T18:35:22;4.75;;;3.63;;
38725;SDS011;24474;48.906;8.808;2022-09-03T18:38:10;6.68;;;3.70;;
38725;SDS011;24474;48.906;8.808;2022-09-03T18:40:59;6.82;;;3.42;;
38725;SDS011;24474;48.906;8.808;2022-09-03T18:52:56;6.72;;;4.60;;
38725;SDS011;24474;48.906;8.808;2022-09-03T19:01:41;6.32;;;4.05;;
38725;SDS011;24474;48.906;8.808;2022-09-03T19:04:46;5.25;;;4.38;;
38725;SDS011;24474;48.906;8.808;2022-09-03T19:11:21;4.75;;;3.70;;
38725;SDS011;24474;48.906;8.808;2022-09-03T19:14:14;4.65;;;3.40;;
38725;SDS011;24474;48.906;8.808;2022-09-03T19:17:33;4.78;;;3.30;;
38725;SDS011;24474;48.906;8.808;2022-09-03T19:20:44;5.47;;;3.17;;
38725;SDS011;24474;48.906;8.808;2022-09-03T19:23:53;3.38;;;2.63;;
38725;SDS011;24474;48.906;8.808;2022-09-03T19:42:50;7.75;;;3.60;;
38725;SDS011;24474;48.906;8.808;2022-09-03T19:51:57;5.45;;;4.10;;
38725;SDS011;24474;48.906;8.808;2022-09-03T19:55:10;5.07;;;3.13;;
38725;SDS011;24474;48.906;8.808;2022-09-03T19:58:17;5.07;;;3.30;;
38725;SDS011;24474;48.906;8.808;2022-09-03T20:01:05;7.40;;;3.28;;
38725;SDS011;24474;48.906;8.808;2022-09-03T20:03:51;4.00;;;2.92;;
38725;SDS011;24474;48.906;8.808;2022-09-03T20:06:39;4.45;;;2.95;;
38725;SDS011;24474;48.906;8.808;2022-09-03T20:09:27;5.55;;;3.10;;
38725;SDS011;24474;48.906;8.808;2022-09-03T20:12:15;6.35;;;2.83;;
38725;SDS011;24474;48.906;8.808;2022-09-03T20:14:44;5.93;;;2.88;;
38725;SDS011;24474;48.906;8.808;2022-09-03T20:21:10;5.65;;;2.97;;
38725;SDS011;24474;48.906;8.808;2022-09-03T20:23:22;3.13;;;2.42;;
38725;SDS011;24474;48.906;8.808;2022-09-03T20:25:55;4.15;;;2.70;;
38725;SDS011;24474;48.906;8.808;2022-09-03T20:37:18;4.93;;;3.42;;
38725;SDS011;24474;48.906;8.808;2022-09-03T20:40:10;3.30;;;2.47;;
38725;SDS011;24474;48.906;8.808;2022-09-03T20:42:44;5.30;;;3.55;;
38725;SDS011;24474;48.906;8.808;2022-09-03T20:48:27;5.50;;;4.10;;
38725;SDS011;24474;48.906;8.808;2022-09-03T20:51:19;7.65;;;3.97;;
38725;SDS011;24474;48.906;8.808;2022-09-03T20:56:39;5.82;;;3.97;;
38725;SDS011;24474;48.906;8.808;2022-09-03T20:59:55;6.03;;;4.35;;
38725;SDS011;24474;48.906;8.808;2022-09-03T21:07:53;7.60;;;4.70;;
38725;SDS011;24474;48.906;8.808;2022-09-03T21:10:42;5.65;;;4.18;;
38725;SDS011;24474;48.906;8.808;2022-09-03T21:15:53;7.95;;;4.22;;
38725;SDS011;24474;48.906;8.808;2022-09-03T21:18:51;6.97;;;3.75;;
38725;SDS011;24474;48.906;8.808;2022-09-03T21:21:29;6.50;;;3.90;;